sensor_id;sensor_type;location;lat;lon;timestamp;temperature;humidity
40538;DHT22;27925;41.874;12.526;2023-06-01T00:01:33;20.60;76.60
40538;DHT22;27925;41.874;12.526;2023-06-01T00:04:03;20.60;76.30
40538;DHT22;27925;41.874;12.526;2023-06-01T00:06:29;20.60;76.40
40538;DHT22;27925;41.874;12.526;2023-06-01T00:08:58;20.50;76.40
40538;DHT22;27925;41.874;12.526;2023-06-01T00:11:24;20.50;76.30
40538;DHT22;27925;41.874;12.526;2023-06-01T00:13:53;20.50;77.10
40538;DHT22;27925;41.874;12.526;2023-06-01T00:16:19;20.50;76.30
40538;DHT22;27925;41.874;12.526;2023-06-01T00:18:45;20.50;76.20
40538;DHT22;27925;41.874;12.526;2023-06-01T00:21:11;20.50;76.30
40538;DHT22;27925;41.874;12.526;2023-06-01T00:23:37;20.50;76.30
40538;DHT22;27925;41.874;12.526;2023-06-01T00:26:07;20.50;76.10
40538;DHT22;27925;41.874;12.526;2023-06-01T00:28:32;20.50;75.70
40538;DHT22;27925;41.874;12.526;2023-06-01T00:30:58;20.50;75.40
40538;DHT22;27925;41.874;12.526;2023-06-01T00:33:24;20.50;75.50
40538;DHT22;27925;41.874;12.526;2023-06-01T00:35:50;20.50;75.30
40538;DHT22;27925;41.874;12.526;2023-06-01T00:38:16;20.50;75.40
40538;DHT22;27925;41.874;12.526;2023-06-01T00:40:41;20.40;75.40
40538;DHT22;27925;41.874;12.526;2023-06-01T00:43:09;20.40;75.70
40538;DHT22;27925;41.874;12.526;2023-06-01T00:45:35;20.30;75.70
40538;DHT22;27925;41.874;12.526;2023-06-01T00:48:01;20.40;75.70
40538;DHT22;27925;41.874;12.526;2023-06-01T00:50:27;20.40;75.60
40538;DHT22;27925;41.874;12.526;2023-06-01T00:52:52;20.30;75.30
40538;DHT22;27925;41.874;12.526;2023-06-01T00:55:20;20.30;75.40
40538;DHT22;27925;41.874;12.526;2023-06-01T00:57:46;20.20;75.40
40538;DHT22;27925;41.874;12.526;2023-06-01T01:00:14;20.20;75.60
40538;DHT22;27925;41.874;12.526;2023-06-01T01:02:41;20.20;75.60
40538;DHT22;27925;41.874;12.526;2023-06-01T01:05:08;20.20;75.40
40538;DHT22;27925;41.874;12.526;2023-06-01T01:10:39;20.30;75.90
40538;DHT22;27925;41.874;12.526;2023-06-01T01:18:36;20.20;74.70
40538;DHT22;27925;41.874;12.526;2023-06-01T01:21:04;20.20;74.60
40538;DHT22;27925;41.874;12.526;2023-06-01T01:27:29;20.20;75.60
40538;DHT22;27925;41.874;12.526;2023-06-01T01:29:52;20.10;74.70
40538;DHT22;27925;41.874;12.526;2023-06-01T01:32:22;20.00;74.60
40538;DHT22;27925;41.874;12.526;2023-06-01T01:34:50;20.00;74.90
40538;DHT22;27925;41.874;12.526;2023-06-01T01:37:16;20.00;75.00
40538;DHT22;27925;41.874;12.526;2023-06-01T01:39:42;19.90;74.80
40538;DHT22;27925;41.874;12.526;2023-06-01T01:42:08;20.00;75.10
40538;DHT22;27925;41.874;12.526;2023-06-01T01:44:34;20.00;75.20
40538;DHT22;27925;41.874;12.526;2023-06-01T01:47:14;20.00;75.00
40538;DHT22;27925;41.874;12.526;2023-06-01T01:49:49;20.00;74.70
40538;DHT22;27925;41.874;12.526;2023-06-01T01:52:39;20.00;74.60
40538;DHT22;27925;41.874;12.526;2023-06-01T01:55:10;20.00;75.50
40538;DHT22;27925;41.874;12.526;2023-06-01T01:57:37;19.90;74.60
40538;DHT22;27925;41.874;12.526;2023-06-01T02:00:07;19.90;74.80
40538;DHT22;27925;41.874;12.526;2023-06-01T02:02:33;19.90;75.00
40538;DHT22;27925;41.874;12.526;2023-06-01T02:04:59;19.90;74.50
40538;DHT22;27925;41.874;12.526;2023-06-01T02:07:24;19.90;74.90
40538;DHT22;27925;41.874;12.526;2023-06-01T02:09:50;19.80;74.40
40538;DHT22;27925;41.874;12.526;2023-06-01T02:12:16;19.80;74.50
40538;DHT22;27925;41.874;12.526;2023-06-01T02:14:42;19.80;74.30
40538;DHT22;27925;41.874;12.526;2023-06-01T02:17:07;19.80;74.20
40538;DHT22;27925;41.874;12.526;2023-06-01T02:19:33;19.80;74.30
40538;DHT22;27925;41.874;12.526;2023-06-01T02:21:59;19.80;74.30
40538;DHT22;27925;41.874;12.526;2023-06-01T02:24:25;19.80;74.20
40538;DHT22;27925;41.874;12.526;2023-06-01T02:26:51;19.80;74.10
40538;DHT22;27925;41.874;12.526;2023-06-01T02:29:21;19.80;74.70
40538;DHT22;27925;41.874;12.526;2023-06-01T02:31:48;19.80;74.30
40538;DHT22;27925;41.874;12.526;2023-06-01T02:34:15;19.80;74.30
40538;DHT22;27925;41.874;12.526;2023-06-01T02:36:40;19.70;74.50
40538;DHT22;27925;41.874;12.526;2023-06-01T02:39:06;19.70;74.60
40538;DHT22;27925;41.874;12.526;2023-06-01T02:41:32;19.70;75.00
40538;DHT22;27925;41.874;12.526;2023-06-01T02:43:58;19.70;75.00
40538;DHT22;27925;41.874;12.526;2023-06-01T02:46:23;19.70;75.10
40538;DHT22;27925;41.874;12.526;2023-06-01T02:48:49;19.80;75.40
40538;DHT22;27925;41.874;12.526;2023-06-01T02:51:16;19.70;75.30
40538;DHT22;27925;41.874;12.526;2023-06-01T02:53:44;19.70;75.60
40538;DHT22;27925;41.874;12.526;2023-06-01T02:56:10;19.70;75.90
40538;DHT22;27925;41.874;12.526;2023-06-01T02:58:35;19.80;76.10
40538;DHT22;27925;41.874;12.526;2023-06-01T03:01:01;19.80;76.30
40538;DHT22;27925;41.874;12.526;2023-06-01T03:03:27;19.70;76.80
40538;DHT22;27925;41.874;12.526;2023-06-01T03:05:54;19.70;77.10
40538;DHT22;27925;41.874;12.526;2023-06-01T03:08:20;19.70;77.30
40538;DHT22;27925;41.874;12.526;2023-06-01T03:10:47;19.60;78.10
40538;DHT22;27925;41.874;12.526;2023-06-01T03:13:13;19.50;78.20
40538;DHT22;27925;41.874;12.526;2023-06-01T03:15:38;19.60;78.70
40538;DHT22;27925;41.874;12.526;2023-06-01T03:18:05;19.60;78.70
40538;DHT22;27925;41.874;12.526;2023-06-01T03:20:37;19.60;79.00
40538;DHT22;27925;41.874;12.526;2023-06-01T03:23:02;19.60;79.10
40538;DHT22;27925;41.874;12.526;2023-06-01T03:25:28;19.60;79.20
40538;DHT22;27925;41.874;12.526;2023-06-01T03:27:54;19.60;79.40
40538;DHT22;27925;41.874;12.526;2023-06-01T03:30:20;19.60;79.50
40538;DHT22;27925;41.874;12.526;2023-06-01T03:32:47;19.50;79.60
40538;DHT22;27925;41.874;12.526;2023-06-01T03:35:13;19.60;80.00
40538;DHT22;27925;41.874;12.526;2023-06-01T03:37:40;19.60;79.90
40538;DHT22;27925;41.874;12.526;2023-06-01T03:40:07;19.60;79.80
40538;DHT22;27925;41.874;12.526;2023-06-01T03:42:43;19.60;80.30
40538;DHT22;27925;41.874;12.526;2023-06-01T03:45:11;19.60;79.90
40538;DHT22;27925;41.874;12.526;2023-06-01T03:47:36;19.50;80.30
40538;DHT22;27925;41.874;12.526;2023-06-01T03:50:04;19.50;80.70
40538;DHT22;27925;41.874;12.526;2023-06-01T03:52:32;19.40;80.80
40538;DHT22;27925;41.874;12.526;2023-06-01T03:54:59;19.50;81.10
40538;DHT22;27925;41.874;12.526;2023-06-01T03:57:26;19.40;80.90
40538;DHT22;27925;41.874;12.526;2023-06-01T03:59:52;19.40;81.30
40538;DHT22;27925;41.874;12.526;2023-06-01T04:02:18;19.40;81.70
40538;DHT22;27925;41.874;12.526;2023-06-01T04:04:45;19.40;81.60
40538;DHT22;27925;41.874;12.526;2023-06-01T04:07:12;19.40;81.80
40538;DHT22;27925;41.874;12.526;2023-06-01T04:09:43;19.40;81.60
40538;DHT22;27925;41.874;12.526;2023-06-01T04:12:10;19.50;81.70
40538;DHT22;27925;41.874;12.526;2023-06-01T04:14:39;19.50;82.10
40538;DHT22;27925;41.874;12.526;2023-06-01T04:17:05;19.60;81.70
40538;DHT22;27925;41.874;12.526;2023-06-01T04:19:32;19.60;81.70
40538;DHT22;27925;41.874;12.526;2023-06-01T04:21:59;19.60;81.60
40538;DHT22;27925;41.874;12.526;2023-06-01T04:24:25;19.60;81.50
40538;DHT22;27925;41.874;12.526;2023-06-01T04:26:51;19.60;81.70
40538;DHT22;27925;41.874;12.526;2023-06-01T04:29:17;19.60;81.60
40538;DHT22;27925;41.874;12.526;2023-06-01T04:31:45;19.60;81.50
40538;DHT22;27925;41.874;12.526;2023-06-01T04:34:11;19.70;81.20
40538;DHT22;27925;41.874;12.526;2023-06-01T04:36:37;19.60;81.10
40538;DHT22;27925;41.874;12.526;2023-06-01T04:39:08;19.60;81.20
40538;DHT22;27925;41.874;12.526;2023-06-01T04:41:34;19.50;81.20
40538;DHT22;27925;41.874;12.526;2023-06-01T04:44:01;19.50;81.20
40538;DHT22;27925;41.874;12.526;2023-06-01T04:46:30;19.50;81.10
40538;DHT22;27925;41.874;12.526;2023-06-01T04:48:56;19.50;81.00
40538;DHT22;27925;41.874;12.526;2023-06-01T04:51:24;19.60;80.90
40538;DHT22;27925;41.874;12.526;2023-06-01T04:53:51;19.60;80.50
40538;DHT22;27925;41.874;12.526;2023-06-01T04:56:25;19.60;80.10
40538;DHT22;27925;41.874;12.526;2023-06-01T04:58:53;19.60;80.10
40538;DHT22;27925;41.874;12.526;2023-06-01T05:01:24;19.70;79.90
40538;DHT22;27925;41.874;12.526;2023-06-01T05:03:52;19.70;79.40
40538;DHT22;27925;41.874;12.526;2023-06-01T05:06:19;19.70;78.70
40538;DHT22;27925;41.874;12.526;2023-06-01T05:08:46;19.70;78.60
40538;DHT22;27925;41.874;12.526;2023-06-01T05:11:12;19.80;78.40
40538;DHT22;27925;41.874;12.526;2023-06-01T05:13:38;19.80;77.80
40538;DHT22;27925;41.874;12.526;2023-06-01T05:16:04;19.80;77.20
40538;DHT22;27925;41.874;12.526;2023-06-01T05:18:31;19.80;77.40
40538;DHT22;27925;41.874;12.526;2023-06-01T05:20:57;19.80;76.70
40538;DHT22;27925;41.874;12.526;2023-06-01T05:23:25;19.80;76.50
40538;DHT22;27925;41.874;12.526;2023-06-01T05:25:51;19.80;75.70
40538;DHT22;27925;41.874;12.526;2023-06-01T05:28:18;19.80;75.50
40538;DHT22;27925;41.874;12.526;2023-06-01T05:30:46;19.80;75.70
40538;DHT22;27925;41.874;12.526;2023-06-01T05:33:12;19.80;75.40
40538;DHT22;27925;41.874;12.526;2023-06-01T05:35:38;19.80;75.20
40538;DHT22;27925;41.874;12.526;2023-06-01T05:38:04;19.90;75.10
40538;DHT22;27925;41.874;12.526;2023-06-01T05:40:29;19.90;74.90
40538;DHT22;27925;41.874;12.526;2023-06-01T05:42:55;19.80;74.20
40538;DHT22;27925;41.874;12.526;2023-06-01T05:45:21;19.80;74.40
40538;DHT22;27925;41.874;12.526;2023-06-01T05:47:47;19.80;74.60
40538;DHT22;27925;41.874;12.526;2023-06-01T05:50:12;19.80;75.00
40538;DHT22;27925;41.874;12.526;2023-06-01T05:52:38;19.90;75.40
40538;DHT22;27925;41.874;12.526;2023-06-01T05:55:05;19.90;75.70
40538;DHT22;27925;41.874;12.526;2023-06-01T05:57:31;19.90;76.60
40538;DHT22;27925;41.874;12.526;2023-06-01T05:59:57;20.00;76.10
40538;DHT22;27925;41.874;12.526;2023-06-01T06:02:22;20.00;76.50
40538;DHT22;27925;41.874;12.526;2023-06-01T06:04:48;20.10;76.80
40538;DHT22;27925;41.874;12.526;2023-06-01T06:07:14;20.10;77.20
40538;DHT22;27925;41.874;12.526;2023-06-01T06:09:40;20.10;77.40
40538;DHT22;27925;41.874;12.526;2023-06-01T06:12:06;20.10;77.30
40538;DHT22;27925;41.874;12.526;2023-06-01T06:14:32;20.20;77.40
40538;DHT22;27925;41.874;12.526;2023-06-01T06:16:59;20.30;77.30
40538;DHT22;27925;41.874;12.526;2023-06-01T06:19:25;20.30;77.50
40538;DHT22;27925;41.874;12.526;2023-06-01T06:21:51;20.30;77.40
40538;DHT22;27925;41.874;12.526;2023-06-01T06:24:17;20.40;77.50
40538;DHT22;27925;41.874;12.526;2023-06-01T06:26:42;20.40;77.30
40538;DHT22;27925;41.874;12.526;2023-06-01T06:29:08;20.50;77.60
40538;DHT22;27925;41.874;12.526;2023-06-01T06:31:33;20.60;77.50
40538;DHT22;27925;41.874;12.526;2023-06-01T06:33:59;20.70;77.50
40538;DHT22;27925;41.874;12.526;2023-06-01T06:36:25;20.70;77.40
40538;DHT22;27925;41.874;12.526;2023-06-01T06:38:51;20.80;77.40
40538;DHT22;27925;41.874;12.526;2023-06-01T06:41:17;20.80;77.40
40538;DHT22;27925;41.874;12.526;2023-06-01T06:43:43;20.80;77.20
40538;DHT22;27925;41.874;12.526;2023-06-01T06:46:08;20.80;77.20
40538;DHT22;27925;41.874;12.526;2023-06-01T06:48:34;20.80;77.20
40538;DHT22;27925;41.874;12.526;2023-06-01T06:51:01;20.90;77.10
40538;DHT22;27925;41.874;12.526;2023-06-01T06:53:27;21.00;76.90
40538;DHT22;27925;41.874;12.526;2023-06-01T06:55:53;21.10;76.50
40538;DHT22;27925;41.874;12.526;2023-06-01T06:58:19;21.10;75.70
40538;DHT22;27925;41.874;12.526;2023-06-01T07:00:44;21.20;75.30
40538;DHT22;27925;41.874;12.526;2023-06-01T07:03:10;21.30;74.70
40538;DHT22;27925;41.874;12.526;2023-06-01T07:05:36;21.30;74.30
40538;DHT22;27925;41.874;12.526;2023-06-01T07:08:02;21.40;74.10
40538;DHT22;27925;41.874;12.526;2023-06-01T07:10:27;21.60;73.80
40538;DHT22;27925;41.874;12.526;2023-06-01T07:12:53;21.70;73.40
40538;DHT22;27925;41.874;12.526;2023-06-01T07:15:19;21.90;73.30
40538;DHT22;27925;41.874;12.526;2023-06-01T07:17:45;22.00;72.50
40538;DHT22;27925;41.874;12.526;2023-06-01T07:20:11;22.10;72.00
40538;DHT22;27925;41.874;12.526;2023-06-01T07:22:37;22.20;71.60
40538;DHT22;27925;41.874;12.526;2023-06-01T07:25:04;22.40;71.00
40538;DHT22;27925;41.874;12.526;2023-06-01T07:27:31;22.60;70.40
40538;DHT22;27925;41.874;12.526;2023-06-01T07:29:57;22.80;70.30
40538;DHT22;27925;41.874;12.526;2023-06-01T07:32:23;23.00;69.60
40538;DHT22;27925;41.874;12.526;2023-06-01T07:34:50;23.30;69.10
40538;DHT22;27925;41.874;12.526;2023-06-01T07:37:16;23.60;68.80
40538;DHT22;27925;41.874;12.526;2023-06-01T07:39:48;24.00;67.70
40538;DHT22;27925;41.874;12.526;2023-06-01T07:42:14;24.20;67.00
40538;DHT22;27925;41.874;12.526;2023-06-01T07:44:40;24.30;65.60
40538;DHT22;27925;41.874;12.526;2023-06-01T07:47:06;24.50;65.60
40538;DHT22;27925;41.874;12.526;2023-06-01T07:49:32;24.60;64.80
40538;DHT22;27925;41.874;12.526;2023-06-01T07:52:01;24.60;64.20
40538;DHT22;27925;41.874;12.526;2023-06-01T07:54:27;24.70;63.80
40538;DHT22;27925;41.874;12.526;2023-06-01T07:56:53;24.80;63.70
40538;DHT22;27925;41.874;12.526;2023-06-01T07:59:19;24.90;63.40
40538;DHT22;27925;41.874;12.526;2023-06-01T08:01:48;24.90;63.30
40538;DHT22;27925;41.874;12.526;2023-06-01T08:04:14;25.00;63.40
40538;DHT22;27925;41.874;12.526;2023-06-01T08:06:40;25.00;63.10
40538;DHT22;27925;41.874;12.526;2023-06-01T08:09:07;25.00;62.90
40538;DHT22;27925;41.874;12.526;2023-06-01T08:11:32;25.00;63.10
40538;DHT22;27925;41.874;12.526;2023-06-01T08:13:59;24.90;63.00
40538;DHT22;27925;41.874;12.526;2023-06-01T08:16:30;24.90;63.00
40538;DHT22;27925;41.874;12.526;2023-06-01T08:18:56;24.90;63.50
40538;DHT22;27925;41.874;12.526;2023-06-01T08:21:25;25.00;63.40
40538;DHT22;27925;41.874;12.526;2023-06-01T08:23:53;25.00;63.30
40538;DHT22;27925;41.874;12.526;2023-06-01T08:26:22;25.10;62.90
40538;DHT22;27925;41.874;12.526;2023-06-01T08:28:49;25.10;62.60
40538;DHT22;27925;41.874;12.526;2023-06-01T08:31:23;25.00;61.70
40538;DHT22;27925;41.874;12.526;2023-06-01T08:33:50;24.90;61.30
40538;DHT22;27925;41.874;12.526;2023-06-01T08:36:17;24.80;61.20
40538;DHT22;27925;41.874;12.526;2023-06-01T08:38:43;24.80;60.90
40538;DHT22;27925;41.874;12.526;2023-06-01T08:41:22;24.70;60.60
40538;DHT22;27925;41.874;12.526;2023-06-01T08:43:58;24.70;60.10
40538;DHT22;27925;41.874;12.526;2023-06-01T08:46:25;24.80;60.60
40538;DHT22;27925;41.874;12.526;2023-06-01T08:48:54;24.80;60.30
40538;DHT22;27925;41.874;12.526;2023-06-01T08:51:22;24.80;60.20
40538;DHT22;27925;41.874;12.526;2023-06-01T08:53:50;24.80;60.50
40538;DHT22;27925;41.874;12.526;2023-06-01T08:56:16;24.90;60.40
40538;DHT22;27925;41.874;12.526;2023-06-01T08:58:43;24.80;59.40
40538;DHT22;27925;41.874;12.526;2023-06-01T09:01:13;24.80;59.70
40538;DHT22;27925;41.874;12.526;2023-06-01T09:03:41;24.80;59.20
40538;DHT22;27925;41.874;12.526;2023-06-01T09:06:06;24.90;58.80
40538;DHT22;27925;41.874;12.526;2023-06-01T09:08:32;24.90;58.20
40538;DHT22;27925;41.874;12.526;2023-06-01T09:10:58;24.80;57.90
40538;DHT22;27925;41.874;12.526;2023-06-01T09:13:38;24.80;58.00
40538;DHT22;27925;41.874;12.526;2023-06-01T09:16:04;24.80;58.40
40538;DHT22;27925;41.874;12.526;2023-06-01T09:18:30;24.90;58.40
40538;DHT22;27925;41.874;12.526;2023-06-01T09:21:13;25.00;58.10
40538;DHT22;27925;41.874;12.526;2023-06-01T09:23:39;25.00;58.10
40538;DHT22;27925;41.874;12.526;2023-06-01T09:26:09;25.00;57.70
40538;DHT22;27925;41.874;12.526;2023-06-01T09:28:54;25.10;57.90
40538;DHT22;27925;41.874;12.526;2023-06-01T09:31:49;25.10;57.50
40538;DHT22;27925;41.874;12.526;2023-06-01T09:34:16;25.10;57.40
40538;DHT22;27925;41.874;12.526;2023-06-01T09:37:05;25.00;57.90
40538;DHT22;27925;41.874;12.526;2023-06-01T09:39:33;25.10;58.00
40538;DHT22;27925;41.874;12.526;2023-06-01T09:42:00;25.10;57.90
40538;DHT22;27925;41.874;12.526;2023-06-01T09:44:32;25.10;57.90
40538;DHT22;27925;41.874;12.526;2023-06-01T09:47:02;25.20;58.10
40538;DHT22;27925;41.874;12.526;2023-06-01T09:49:36;25.20;57.90
40538;DHT22;27925;41.874;12.526;2023-06-01T09:54:30;25.30;57.70
40538;DHT22;27925;41.874;12.526;2023-06-01T09:56:57;25.40;57.10
40538;DHT22;27925;41.874;12.526;2023-06-01T09:59:24;25.50;56.90
40538;DHT22;27925;41.874;12.526;2023-06-01T10:01:52;25.50;56.80
40538;DHT22;27925;41.874;12.526;2023-06-01T10:04:23;25.60;56.40
40538;DHT22;27925;41.874;12.526;2023-06-01T10:06:50;25.60;56.20
40538;DHT22;27925;41.874;12.526;2023-06-01T10:09:20;25.60;56.10
40538;DHT22;27925;41.874;12.526;2023-06-01T10:11:48;25.70;56.00
40538;DHT22;27925;41.874;12.526;2023-06-01T10:14:17;25.80;56.00
40538;DHT22;27925;41.874;12.526;2023-06-01T10:16:43;25.80;55.30
40538;DHT22;27925;41.874;12.526;2023-06-01T10:19:10;25.80;55.20
40538;DHT22;27925;41.874;12.526;2023-06-01T10:21:36;25.90;54.90
40538;DHT22;27925;41.874;12.526;2023-06-01T10:24:03;25.90;54.80
40538;DHT22;27925;41.874;12.526;2023-06-01T10:26:30;25.90;55.20
40538;DHT22;27925;41.874;12.526;2023-06-01T10:29:00;25.80;55.60
40538;DHT22;27925;41.874;12.526;2023-06-01T10:33:59;25.90;55.50
40538;DHT22;27925;41.874;12.526;2023-06-01T10:37:30;25.90;54.60
40538;DHT22;27925;41.874;12.526;2023-06-01T10:39:34;26.00;54.80
40538;DHT22;27925;41.874;12.526;2023-06-01T10:47:04;26.10;54.10
40538;DHT22;27925;41.874;12.526;2023-06-01T10:54:57;26.40;54.00
40538;DHT22;27925;41.874;12.526;2023-06-01T10:57:44;26.40;53.50
40538;DHT22;27925;41.874;12.526;2023-06-01T11:02:59;26.60;53.70
40538;DHT22;27925;41.874;12.526;2023-06-01T11:05:47;26.70;53.20
40538;DHT22;27925;41.874;12.526;2023-06-01T11:10:59;26.70;51.30
40538;DHT22;27925;41.874;12.526;2023-06-01T11:13:30;26.80;51.80
40538;DHT22;27925;41.874;12.526;2023-06-01T11:18:47;26.90;50.90
40538;DHT22;27925;41.874;12.526;2023-06-01T11:21:20;26.90;51.90
40538;DHT22;27925;41.874;12.526;2023-06-01T11:23:53;27.00;51.90
40538;DHT22;27925;41.874;12.526;2023-06-01T11:26:30;27.20;51.60
40538;DHT22;27925;41.874;12.526;2023-06-01T11:29:21;27.20;51.40
40538;DHT22;27925;41.874;12.526;2023-06-01T11:31:57;27.20;50.30
40538;DHT22;27925;41.874;12.526;2023-06-01T11:34:39;27.20;49.30
40538;DHT22;27925;41.874;12.526;2023-06-01T11:37:19;27.30;49.20
40538;DHT22;27925;41.874;12.526;2023-06-01T11:39:45;27.50;50.70
40538;DHT22;27925;41.874;12.526;2023-06-01T11:42:17;27.50;50.00
40538;DHT22;27925;41.874;12.526;2023-06-01T11:44:44;27.60;50.10
40538;DHT22;27925;41.874;12.526;2023-06-01T11:47:11;27.80;50.00
40538;DHT22;27925;41.874;12.526;2023-06-01T11:49:49;27.90;49.10
40538;DHT22;27925;41.874;12.526;2023-06-01T11:52:19;28.00;49.00
40538;DHT22;27925;41.874;12.526;2023-06-01T11:54:46;28.10;48.90
40538;DHT22;27925;41.874;12.526;2023-06-01T11:57:12;28.20;48.90
40538;DHT22;27925;41.874;12.526;2023-06-01T11:59:39;28.40;48.30
40538;DHT22;27925;41.874;12.526;2023-06-01T12:02:19;28.40;48.50
40538;DHT22;27925;41.874;12.526;2023-06-01T12:05:00;28.50;49.60
40538;DHT22;27925;41.874;12.526;2023-06-01T12:07:31;28.50;48.80
40538;DHT22;27925;41.874;12.526;2023-06-01T12:09:58;28.50;50.80
40538;DHT22;27925;41.874;12.526;2023-06-01T12:12:26;28.50;50.80
40538;DHT22;27925;41.874;12.526;2023-06-01T12:14:54;28.50;51.10
40538;DHT22;27925;41.874;12.526;2023-06-01T12:17:20;28.40;50.80
40538;DHT22;27925;41.874;12.526;2023-06-01T12:19:47;28.50;51.20
40538;DHT22;27925;41.874;12.526;2023-06-01T12:22:13;28.50;51.40
40538;DHT22;27925;41.874;12.526;2023-06-01T12:24:40;28.60;51.40
40538;DHT22;27925;41.874;12.526;2023-06-01T12:27:19;28.60;51.00
40538;DHT22;27925;41.874;12.526;2023-06-01T12:29:46;28.70;51.10
40538;DHT22;27925;41.874;12.526;2023-06-01T12:32:14;28.80;51.20
40538;DHT22;27925;41.874;12.526;2023-06-01T12:34:43;28.80;51.00
40538;DHT22;27925;41.874;12.526;2023-06-01T12:37:14;28.70;51.10
40538;DHT22;27925;41.874;12.526;2023-06-01T12:39:40;28.60;51.10
40538;DHT22;27925;41.874;12.526;2023-06-01T12:42:07;28.60;51.00
40538;DHT22;27925;41.874;12.526;2023-06-01T12:44:33;28.60;51.10
40538;DHT22;27925;41.874;12.526;2023-06-01T12:47:00;28.70;51.30
40538;DHT22;27925;41.874;12.526;2023-06-01T12:49:29;28.70;50.50
40538;DHT22;27925;41.874;12.526;2023-06-01T12:51:55;28.70;51.20
40538;DHT22;27925;41.874;12.526;2023-06-01T12:54:21;28.70;51.30
40538;DHT22;27925;41.874;12.526;2023-06-01T12:56:50;28.70;51.00
40538;DHT22;27925;41.874;12.526;2023-06-01T12:59:16;28.80;51.20
40538;DHT22;27925;41.874;12.526;2023-06-01T13:01:42;28.70;51.10
40538;DHT22;27925;41.874;12.526;2023-06-01T13:04:09;28.70;50.70
40538;DHT22;27925;41.874;12.526;2023-06-01T13:06:34;28.60;51.00
40538;DHT22;27925;41.874;12.526;2023-06-01T13:09:01;28.70;51.00
40538;DHT22;27925;41.874;12.526;2023-06-01T13:11:27;28.70;51.20
40538;DHT22;27925;41.874;12.526;2023-06-01T13:13:53;28.70;50.90
40538;DHT22;27925;41.874;12.526;2023-06-01T13:16:19;28.60;50.60
40538;DHT22;27925;41.874;12.526;2023-06-01T13:18:45;28.60;50.80
40538;DHT22;27925;41.874;12.526;2023-06-01T13:21:11;28.60;50.80
40538;DHT22;27925;41.874;12.526;2023-06-01T13:23:36;28.60;50.80
40538;DHT22;27925;41.874;12.526;2023-06-01T13:26:02;28.60;50.60
40538;DHT22;27925;41.874;12.526;2023-06-01T13:28:28;28.50;50.80
40538;DHT22;27925;41.874;12.526;2023-06-01T13:30:54;28.60;50.70
40538;DHT22;27925;41.874;12.526;2023-06-01T13:33:21;28.70;50.60
40538;DHT22;27925;41.874;12.526;2023-06-01T13:35:46;28.60;50.30
40538;DHT22;27925;41.874;12.526;2023-06-01T13:38:13;28.60;50.40
40538;DHT22;27925;41.874;12.526;2023-06-01T13:40:38;28.60;50.20
40538;DHT22;27925;41.874;12.526;2023-06-01T13:43:04;28.70;50.40
40538;DHT22;27925;41.874;12.526;2023-06-01T13:45:30;28.70;50.40
40538;DHT22;27925;41.874;12.526;2023-06-01T13:47:56;28.70;50.40
40538;DHT22;27925;41.874;12.526;2023-06-01T13:50:24;28.80;50.40
40538;DHT22;27925;41.874;12.526;2023-06-01T13:52:50;28.80;50.30
40538;DHT22;27925;41.874;12.526;2023-06-01T13:55:18;28.90;50.30
40538;DHT22;27925;41.874;12.526;2023-06-01T13:57:44;28.90;50.10
40538;DHT22;27925;41.874;12.526;2023-06-01T14:00:10;28.90;49.80
40538;DHT22;27925;41.874;12.526;2023-06-01T14:02:36;28.80;49.30
40538;DHT22;27925;41.874;12.526;2023-06-01T14:05:02;28.80;49.70
40538;DHT22;27925;41.874;12.526;2023-06-01T14:07:27;28.90;50.30
40538;DHT22;27925;41.874;12.526;2023-06-01T14:09:53;29.00;49.80
40538;DHT22;27925;41.874;12.526;2023-06-01T14:12:19;29.00;49.70
40538;DHT22;27925;41.874;12.526;2023-06-01T14:14:45;28.90;49.30
40538;DHT22;27925;41.874;12.526;2023-06-01T14:17:10;28.80;49.70
40538;DHT22;27925;41.874;12.526;2023-06-01T14:19:36;28.80;49.80
40538;DHT22;27925;41.874;12.526;2023-06-01T14:22:02;28.80;49.80
40538;DHT22;27925;41.874;12.526;2023-06-01T14:24:27;28.90;50.00
40538;DHT22;27925;41.874;12.526;2023-06-01T14:26:53;28.90;50.00
40538;DHT22;27925;41.874;12.526;2023-06-01T14:29:19;29.00;49.90
40538;DHT22;27925;41.874;12.526;2023-06-01T14:31:45;29.10;49.80
40538;DHT22;27925;41.874;12.526;2023-06-01T14:34:11;29.10;49.60
40538;DHT22;27925;41.874;12.526;2023-06-01T14:36:37;29.10;49.50
40538;DHT22;27925;41.874;12.526;2023-06-01T14:39:03;29.20;50.30
40538;DHT22;27925;41.874;12.526;2023-06-01T14:41:28;29.10;49.40
40538;DHT22;27925;41.874;12.526;2023-06-01T14:43:54;29.00;49.20
40538;DHT22;27925;41.874;12.526;2023-06-01T14:46:20;28.90;49.40
40538;DHT22;27925;41.874;12.526;2023-06-01T14:48:47;28.90;49.30
40538;DHT22;27925;41.874;12.526;2023-06-01T14:51:12;28.90;49.40
40538;DHT22;27925;41.874;12.526;2023-06-01T14:53:38;28.90;49.40
40538;DHT22;27925;41.874;12.526;2023-06-01T14:56:05;29.00;49.20
40538;DHT22;27925;41.874;12.526;2023-06-01T14:58:31;28.90;49.30
40538;DHT22;27925;41.874;12.526;2023-06-01T15:00:57;28.90;49.50
40538;DHT22;27925;41.874;12.526;2023-06-01T15:03:24;28.90;49.40
40538;DHT22;27925;41.874;12.526;2023-06-01T15:05:50;28.90;49.60
40538;DHT22;27925;41.874;12.526;2023-06-01T15:08:17;29.00;49.80
40538;DHT22;27925;41.874;12.526;2023-06-01T15:10:46;28.90;49.60
40538;DHT22;27925;41.874;12.526;2023-06-01T15:13:12;29.00;49.90
40538;DHT22;27925;41.874;12.526;2023-06-01T15:15:41;28.90;48.80
40538;DHT22;27925;41.874;12.526;2023-06-01T15:18:07;29.00;49.50
40538;DHT22;27925;41.874;12.526;2023-06-01T15:20:32;29.00;49.40
40538;DHT22;27925;41.874;12.526;2023-06-01T15:22:58;28.90;49.50
40538;DHT22;27925;41.874;12.526;2023-06-01T15:25:24;28.90;49.50
40538;DHT22;27925;41.874;12.526;2023-06-01T15:27:50;28.90;49.20
40538;DHT22;27925;41.874;12.526;2023-06-01T15:30:16;28.90;49.20
40538;DHT22;27925;41.874;12.526;2023-06-01T15:32:41;28.90;49.20
40538;DHT22;27925;41.874;12.526;2023-06-01T15:35:07;28.90;49.10
40538;DHT22;27925;41.874;12.526;2023-06-01T15:37:34;29.00;48.80
40538;DHT22;27925;41.874;12.526;2023-06-01T15:40:00;29.00;49.30
40538;DHT22;27925;41.874;12.526;2023-06-01T15:42:26;28.90;49.40
40538;DHT22;27925;41.874;12.526;2023-06-01T15:44:52;28.90;49.10
40538;DHT22;27925;41.874;12.526;2023-06-01T15:47:18;28.90;49.10
40538;DHT22;27925;41.874;12.526;2023-06-01T15:49:43;28.80;49.40
40538;DHT22;27925;41.874;12.526;2023-06-01T15:52:09;28.80;49.10
40538;DHT22;27925;41.874;12.526;2023-06-01T15:54:35;28.70;49.10